Time;durP1;ratioP1;P1;durP2;ratioP2;P2;SDS_P1;SDS_P2;PMS_P1;PMS_P2;Temp;Humidity;BMP_temperature;BMP_pressure;BME280_temperature;BME280_humidity;BME280_pressure;Samples;Min_cycle;Max_cycle;Signal;HPM_P1;HPM_P2
2022/07/15 00:02:10;;;;;;;4.23;3.83;;;19.10;99.90;;;;;;5092776;28;20295;-68
2022/07/15 00:04:37;;;;;;;5.53;4.40;;;19.20;99.90;;;;;;5092460;28;20295;-68
2022/07/15 00:07:05;;;;;;;4.10;3.70;;;19.10;99.90;;;;;;4999344;28;20210;-70
2022/07/15 00:12:19;;;;;;;6.53;4.60;;;19.00;99.90;;;;;;5009881;28;20194;-68
2022/07/15 00:14:46;;;;;;;5.47;4.30;;;18.90;99.90;;;;;;5009838;28;20331;-68
2022/07/15 00:17:13;;;;;;;5.37;4.20;;;18.90;99.90;;;;;;5010043;28;20661;-69
2022/07/15 00:19:40;;;;;;;6.30;4.00;;;18.80;99.90;;;;;;5009914;28;20219;-69
2022/07/15 00:22:07;;;;;;;7.57;4.60;;;18.80;99.90;;;;;;5010052;28;20217;-67
2022/07/15 00:24:34;;;;;;;6.07;4.73;;;18.70;99.90;;;;;;5009847;28;20195;-69
2022/07/15 00:27:02;;;;;;;5.10;4.20;;;18.70;99.90;;;;;;5008879;28;20297;-68
2022/07/15 00:29:30;;;;;;;5.17;4.13;;;18.60;99.90;;;;;;5009907;28;20206;-69
2022/07/15 00:31:57;;;;;;;5.57;4.40;;;18.50;99.90;;;;;;5009705;28;20220;-69
2022/07/15 00:34:24;;;;;;;4.83;4.17;;;18.50;99.90;;;;;;5009321;28;20325;-68
2022/07/15 00:36:51;;;;;;;6.37;4.50;;;18.40;99.90;;;;;;5010208;28;20667;-69
2022/07/15 00:39:18;;;;;;;7.50;4.60;;;18.30;99.90;;;;;;5009916;28;20207;-69
2022/07/15 00:41:45;;;;;;;5.90;4.07;;;18.30;99.90;;;;;;5009331;28;20301;-68
2022/07/15 00:44:12;;;;;;;6.37;4.00;;;18.30;99.90;;;;;;4999066;28;20262;-69
2022/07/15 00:46:41;;;;;;;4.60;4.17;;;18.30;99.90;;;;;;4989487;28;20306;-68
2022/07/15 00:49:10;;;;;;;6.07;4.20;;;18.30;99.90;;;;;;4990100;28;20312;-68
2022/07/15 00:51:38;;;;;;;6.27;4.60;;;18.30;99.90;;;;;;4989886;28;20234;-68
2022/07/15 00:54:08;;;;;;;5.07;4.37;;;18.30;99.90;;;;;;4989569;28;20318;-69
2022/07/15 00:56:37;;;;;;;5.83;4.90;;;18.30;99.90;;;;;;4989509;28;20305;-68
2022/07/15 00:59:06;;;;;;;6.17;4.93;;;18.30;99.90;;;;;;5089550;28;20211;-68
2022/07/15 01:01:34;;;;;;;5.87;4.93;;;18.30;99.90;;;;;;5017199;28;20309;-69
2022/07/15 01:04:05;;;;;;;6.63;5.90;;;18.30;99.90;;;;;;4989468;28;20585;-68
2022/07/15 01:06:32;;;;;;;8.57;6.57;;;18.30;99.90;;;;;;4989405;28;20282;-70
2022/07/15 01:08:59;;;;;;;10.47;8.07;;;18.30;99.90;;;;;;4990162;28;20296;-68
2022/07/15 01:11:26;;;;;;;7.47;6.13;;;18.30;99.90;;;;;;4989581;28;20715;-67
2022/07/15 01:13:54;;;;;;;7.00;5.73;;;18.30;99.90;;;;;;4989377;28;20230;-68
2022/07/15 01:16:21;;;;;;;7.50;5.13;;;18.40;99.90;;;;;;5084945;28;20203;-68
2022/07/15 01:18:48;;;;;;;5.40;4.70;;;18.40;99.90;;;;;;5023174;28;20213;-69
2022/07/15 01:21:16;;;;;;;5.07;4.57;;;18.40;99.90;;;;;;5009499;28;20283;-68
2022/07/15 01:23:43;;;;;;;5.10;4.23;;;18.40;99.90;;;;;;5008941;28;20671;-70
2022/07/15 01:26:11;;;;;;;4.90;4.40;;;18.50;99.90;;;;;;5008595;28;20577;-68
2022/07/15 01:28:38;;;;;;;6.07;4.87;;;18.50;99.90;;;;;;5008558;28;20209;-69
2022/07/15 01:31:05;;;;;;;6.37;5.03;;;18.50;99.90;;;;;;5009059;28;20302;-68
2022/07/15 01:33:33;;;;;;;5.47;4.97;;;18.50;99.90;;;;;;5008967;28;20225;-68
2022/07/15 01:36:00;;;;;;;6.10;5.10;;;18.50;99.90;;;;;;5024765;28;20208;-69
2022/07/15 01:38:29;;;;;;;7.00;4.90;;;18.50;99.90;;;;;;4989005;28;20300;-68
2022/07/15 01:40:56;;;;;;;8.93;4.60;;;18.50;99.90;;;;;;4989486;28;20667;-69
2022/07/15 01:43:24;;;;;;;5.67;4.37;;;18.40;99.90;;;;;;4997475;28;20625;-68
2022/07/15 01:45:51;;;;;;;5.37;4.60;;;18.50;99.90;;;;;;4989072;28;20209;-68
2022/07/15 01:51:02;;;;;;;6.90;5.03;;;18.50;99.90;;;;;;4988232;28;20252;-68
2022/07/15 01:53:31;;;;;;;4.87;3.97;;;18.50;99.90;;;;;;4987561;28;20646;-69
2022/07/15 01:55:58;;;;;;;5.03;4.10;;;18.50;99.90;;;;;;4988551;28;20290;-66
2022/07/15 01:58:24;;;;;;;5.47;3.73;;;18.50;99.90;;;;;;4989063;28;20261;-68
2022/07/15 02:00:51;;;;;;;5.47;3.60;;;18.50;99.90;;;;;;4992447;28;20209;-68
2022/07/15 02:03:18;;;;;;;5.97;3.97;;;18.60;99.90;;;;;;4992321;28;20290;-69
2022/07/15 02:05:45;;;;;;;4.23;3.83;;;18.60;99.90;;;;;;4976252;28;20297;-69
2022/07/15 02:08:12;;;;;;;5.20;4.10;;;18.60;99.90;;;;;;4972706;28;20260;-67
2022/07/15 02:10:40;;;;;;;4.20;3.80;;;18.60;99.90;;;;;;4988724;28;20621;-68
2022/07/15 02:13:08;;;;;;;4.00;3.60;;;18.70;99.90;;;;;;4992014;28;20294;-68
2022/07/15 02:15:35;;;;;;;4.10;3.70;;;18.70;99.90;;;;;;4991851;28;20211;-68
2022/07/15 02:18:02;;;;;;;4.60;3.93;;;18.70;99.90;;;;;;4991910;28;20300;-69
2022/07/15 02:20:29;;;;;;;5.23;4.10;;;18.80;99.90;;;;;;4988991;28;20212;-68
2022/07/15 02:22:57;;;;;;;5.50;4.50;;;18.80;99.90;;;;;;4991936;28;20717;-67
2022/07/15 02:25:25;;;;;;;5.77;4.10;;;18.80;99.90;;;;;;4991550;28;20211;-68
2022/07/15 02:27:56;;;;;;;6.90;3.90;;;18.90;99.90;;;;;;4991642;28;20218;-69
2022/07/15 02:30:24;;;;;;;4.60;4.10;;;18.90;99.90;;;;;;4987106;28;20298;-68
2022/07/15 02:32:51;;;;;;;5.10;4.20;;;18.90;99.90;;;;;;4991906;28;20304;-68
2022/07/15 02:35:18;;;;;;;6.40;3.93;;;18.90;99.90;;;;;;4991400;28;20227;-68
2022/07/15 02:37:45;;;;;;;4.40;3.90;;;18.90;99.90;;;;;;4990962;28;20210;-68
2022/07/15 02:40:13;;;;;;;4.03;3.63;;;18.90;99.90;;;;;;4991941;28;20716;-69
2022/07/15 02:42:40;;;;;;;4.80;4.27;;;18.90;99.90;;;;;;4989462;28;20239;-68
2022/07/15 02:45:09;;;;;;;4.70;4.20;;;19.00;99.90;;;;;;4991134;28;20208;-68
2022/07/15 02:47:36;;;;;;;4.23;3.80;;;19.00;99.90;;;;;;4991574;28;20262;-68
2022/07/15 02:50:03;;;;;;;4.83;4.07;;;19.00;99.90;;;;;;4991600;28;20205;-69
2022/07/15 02:52:30;;;;;;;5.27;3.90;;;19.00;99.90;;;;;;4990646;28;20223;-69
2022/07/15 02:54:57;;;;;;;5.33;3.97;;;19.10;99.90;;;;;;4991451;28;20878;-69
2022/07/15 02:57:24;;;;;;;6.07;3.90;;;19.10;99.90;;;;;;4990908;28;20300;-67
2022/07/15 02:59:51;;;;;;;5.47;4.20;;;19.10;99.90;;;;;;4991466;28;20728;-69
2022/07/15 03:02:19;;;;;;;5.90;4.03;;;19.10;99.90;;;;;;4990458;28;20225;-67
2022/07/15 03:04:46;;;;;;;5.77;4.63;;;19.10;99.90;;;;;;4990562;28;20304;-68
2022/07/15 03:07:13;;;;;;;4.47;3.83;;;19.20;99.90;;;;;;4990924;28;20215;-68
2022/07/15 03:09:40;;;;;;;4.07;3.67;;;19.10;99.90;;;;;;4991287;28;20209;-68
2022/07/15 03:12:07;;;;;;;5.83;4.17;;;19.10;99.90;;;;;;4989646;28;20254;-69
2022/07/15 03:14:34;;;;;;;5.63;4.37;;;19.20;99.90;;;;;;4991277;28;20311;-68
2022/07/15 03:17:01;;;;;;;6.37;4.77;;;19.20;99.90;;;;;;4991255;28;20206;-67
2022/07/15 03:19:29;;;;;;;6.60;4.43;;;19.20;99.90;;;;;;4991276;28;20298;-67
2022/07/15 03:21:56;;;;;;;5.03;4.17;;;19.20;99.90;;;;;;4990922;28;20253;-68
2022/07/15 03:24:23;;;;;;;5.17;4.60;;;19.10;99.90;;;;;;4988932;28;20239;-69
2022/07/15 03:26:50;;;;;;;6.97;4.20;;;19.10;99.90;;;;;;4989314;28;20216;-69
2022/07/15 03:29:17;;;;;;;5.33;3.87;;;19.10;99.90;;;;;;4990813;28;20213;-68
2022/07/15 03:31:44;;;;;;;5.97;4.80;;;19.10;99.90;;;;;;4989981;28;20231;-69
2022/07/15 03:34:11;;;;;;;5.83;4.40;;;19.10;99.90;;;;;;4991091;28;20316;-69
2022/07/15 03:36:40;;;;;;;5.70;4.47;;;19.10;99.90;;;;;;4991201;28;20263;-68
2022/07/15 03:39:07;;;;;;;6.67;4.60;;;19.10;99.90;;;;;;4990795;28;20292;-68
2022/07/15 03:41:35;;;;;;;5.57;4.57;;;19.10;99.90;;;;;;4989711;28;20247;-67
2022/07/15 03:44:02;;;;;;;6.00;4.50;;;19.00;99.90;;;;;;4990867;28;20295;-69
2022/07/15 03:46:30;;;;;;;5.87;4.40;;;19.00;99.90;;;;;;4989097;28;20293;-68
2022/07/15 03:48:57;;;;;;;6.70;4.70;;;19.00;99.90;;;;;;4990849;28;20601;-68
2022/07/15 03:51:24;;;;;;;5.43;4.40;;;19.00;99.90;;;;;;4990866;28;20224;-68
2022/07/15 03:53:53;;;;;;;6.00;4.90;;;19.00;99.90;;;;;;4990644;28;20263;-69
2022/07/15 03:56:20;;;;;;;7.83;5.87;;;19.00;99.90;;;;;;4989710;28;20221;-69
2022/07/15 03:58:46;;;;;;;10.03;6.53;;;19.00;99.90;;;;;;4990824;28;20246;-68
2022/07/15 04:01:13;;;;;;;5.40;4.80;;;19.10;99.90;;;;;;4990567;28;20332;-69
2022/07/15 04:03:40;;;;;;;5.97;4.67;;;19.10;99.90;;;;;;4990675;28;20208;-68
2022/07/15 04:06:07;;;;;;;8.17;5.10;;;19.10;99.90;;;;;;4989345;28;20295;-68
2022/07/15 04:08:34;;;;;;;6.10;5.37;;;19.10;99.90;;;;;;4990683;28;20296;-68
2022/07/15 04:11:02;;;;;;;6.80;5.60;;;19.10;99.90;;;;;;4990346;28;20597;-69
2022/07/15 04:13:29;;;;;;;5.43;4.90;;;19.00;99.90;;;;;;4988640;28;20300;-68
2022/07/15 04:15:56;;;;;;;6.83;5.50;;;18.90;99.90;;;;;;4990124;28;20324;-68
2022/07/15 04:18:23;;;;;;;6.60;5.07;;;18.90;99.90;;;;;;4988216;28;20301;-68
2022/07/15 04:20:50;;;;;;;5.70;5.10;;;18.80;99.90;;;;;;4990284;28;20669;-67
2022/07/15 04:23:17;;;;;;;6.57;4.80;;;18.80;99.90;;;;;;4988273;28;20335;-68
2022/07/15 04:25:44;;;;;;;5.30;4.77;;;18.90;99.90;;;;;;4980004;28;20207;-68
2022/07/15 04:28:12;;;;;;;5.37;4.77;;;18.90;99.90;;;;;;4988171;28;20203;-68
2022/07/15 04:30:39;;;;;;;6.37;5.77;;;19.00;99.90;;;;;;4989882;28;20214;-67
2022/07/15 04:33:06;;;;;;;6.60;4.83;;;19.00;99.90;;;;;;4989923;28;20295;-68
2022/07/15 04:35:33;;;;;;;7.07;4.90;;;19.00;99.90;;;;;;4988345;28;20720;-69
2022/07/15 04:38:00;;;;;;;5.40;4.73;;;19.10;99.90;;;;;;4990050;28;20216;-68
2022/07/15 04:40:27;;;;;;;5.93;5.10;;;19.10;99.90;;;;;;4990198;28;20220;-68
2022/07/15 04:42:54;;;;;;;5.60;4.60;;;19.20;99.90;;;;;;4990006;28;20303;-68
2022/07/15 04:45:22;;;;;;;6.93;6.20;;;19.20;99.90;;;;;;4988118;28;20286;-69
2022/07/15 04:47:49;;;;;;;6.77;5.33;;;19.20;99.90;;;;;;4987518;28;20215;-69
2022/07/15 04:53:00;;;;;;;9.13;7.23;;;19.40;99.90;;;;;;4989493;28;20188;-69
2022/07/15 04:55:27;;;;;;;10.33;7.57;;;19.40;99.90;;;;;;4989755;28;20238;-68
2022/07/15 04:57:54;;;;;;;9.77;7.63;;;19.40;99.90;;;;;;4989556;28;20215;-68
2022/07/15 05:00:22;;;;;;;9.70;6.87;;;19.40;99.90;;;;;;4989694;28;20696;-69
2022/07/15 05:02:49;;;;;;;9.27;6.47;;;19.40;99.90;;;;;;4987905;28;20641;-69
2022/07/15 05:05:16;;;;;;;10.43;7.60;;;19.50;99.90;;;;;;4986754;28;20299;-68
2022/07/15 05:07:43;;;;;;;11.57;7.63;;;19.50;99.90;;;;;;4989593;28;20218;-68
2022/07/15 05:10:11;;;;;;;12.43;7.83;;;19.40;99.90;;;;;;4989816;28;20298;-68
2022/07/15 05:12:37;;;;;;;8.00;6.13;;;19.40;99.90;;;;;;4988876;28;20681;-68
2022/07/15 05:15:06;;;;;;;10.50;7.57;;;19.50;99.90;;;;;;4989320;28;20317;-69
2022/07/15 05:17:34;;;;;;;15.37;9.27;;;19.50;99.90;;;;;;4989502;28;20207;-69
2022/07/15 05:20:02;;;;;;;15.80;9.90;;;19.60;99.90;;;;;;4988711;28;20301;-69
2022/07/15 05:22:29;;;;;;;15.53;8.93;;;19.50;99.90;;;;;;4989301;28;20248;-68
2022/07/15 05:24:55;;;;;;;16.03;7.80;;;19.50;99.90;;;;;;4989142;28;20225;-68
2022/07/15 05:27:22;;;;;;;13.63;6.67;;;19.50;99.90;;;;;;4986752;28;20313;-70
2022/07/15 05:29:49;;;;;;;13.97;8.10;;;19.50;99.90;;;;;;4985557;28;20304;-69
2022/07/15 05:32:16;;;;;;;21.33;12.97;;;19.50;99.90;;;;;;4988340;28;20206;-69
2022/07/15 05:34:44;;;;;;;14.03;9.93;;;19.50;99.90;;;;;;4990629;28;20310;-68
2022/07/15 05:37:11;;;;;;;14.60;8.63;;;19.60;99.90;;;;;;4993045;28;20246;-69
2022/07/15 05:39:53;;;;;;;12.73;8.13;;;19.70;99.90;;;;;;4990957;28;20530;-70
2022/07/15 05:42:20;;;;;;;13.33;7.73;;;19.80;99.90;;;;;;4990558;28;20286;-69
2022/07/15 05:44:47;;;;;;;9.03;7.10;;;19.90;99.90;;;;;;4991348;28;20218;-69
2022/07/15 05:47:13;;;;;;;10.37;6.87;;;20.00;99.90;;;;;;4991824;28;20213;-70
2022/07/15 05:49:41;;;;;;;7.17;6.00;;;20.10;99.90;;;;;;4991937;28;20205;-69
2022/07/15 05:52:09;;;;;;;10.13;6.80;;;20.20;99.90;;;;;;4989381;28;20301;-69
2022/07/15 05:54:36;;;;;;;8.50;6.63;;;20.30;99.90;;;;;;4991780;28;20236;-68
2022/07/15 05:57:04;;;;;;;9.37;5.93;;;20.40;99.90;;;;;;4992684;28;20204;-69
2022/07/15 05:59:31;;;;;;;10.77;6.47;;;20.50;99.90;;;;;;5060639;28;20203;-69
2022/07/15 06:01:58;;;;;;;8.83;6.20;;;20.50;99.90;;;;;;4998926;28;20208;-69
2022/07/15 06:04:26;;;;;;;8.40;6.33;;;20.50;99.90;;;;;;4992613;28;20208;-68
2022/07/15 06:06:53;;;;;;;8.23;6.20;;;20.60;99.90;;;;;;5000319;28;20206;-69
2022/07/15 06:09:22;;;;;;;8.20;6.30;;;20.70;99.90;;;;;;4994704;28;20216;-69
2022/07/15 06:11:49;;;;;;;9.47;6.07;;;20.80;99.90;;;;;;4992213;28;20217;-69
2022/07/15 06:14:16;;;;;;;8.33;5.47;;;21.00;99.90;;;;;;5072770;28;20212;-69
2022/07/15 06:16:43;;;;;;;10.97;5.37;;;21.10;99.90;;;;;;5095291;28;20638;-69
2022/07/15 06:19:10;;;;;;;6.20;4.80;;;21.20;99.90;;;;;;5081923;28;20629;-69
2022/07/15 06:21:38;;;;;;;7.23;5.67;;;21.40;99.90;;;;;;4991584;28;20221;-70
2022/07/15 06:24:05;;;;;;;8.10;5.27;;;21.60;99.90;;;;;;4991775;28;20307;-69
2022/07/15 06:26:33;;;;;;;9.73;5.37;;;21.70;99.90;;;;;;4991848;28;20299;-69
2022/07/15 06:29:00;;;;;;;7.17;5.13;;;21.80;99.90;;;;;;4992154;28;20256;-68
2022/07/15 06:31:27;;;;;;;14.90;5.33;;;22.00;99.90;;;;;;4991179;28;20222;-71
2022/07/15 06:33:54;;;;;;;6.27;5.13;;;22.10;99.90;;;;;;4991113;28;20647;-69
2022/07/15 06:36:21;;;;;;;9.37;5.57;;;22.20;99.90;;;;;;4991890;28;20228;-69
2022/07/15 06:38:49;;;;;;;7.53;5.03;;;22.30;99.90;;;;;;4991243;28;20204;-67
2022/07/15 06:41:16;;;;;;;5.27;4.60;;;22.50;99.90;;;;;;4991591;28;20667;-68
2022/07/15 06:43:45;;;;;;;6.37;4.93;;;22.60;99.90;;;;;;4990862;28;20292;-68
2022/07/15 06:46:13;;;;;;;6.07;4.17;;;22.70;99.90;;;;;;4990065;28;20200;-68
2022/07/15 06:48:40;;;;;;;11.67;4.93;;;22.80;99.90;;;;;;4990879;28;20218;-68
2022/07/15 06:51:07;;;;;;;6.13;4.00;;;22.90;99.90;;;;;;4991495;28;20239;-69
2022/07/15 06:53:34;;;;;;;5.50;4.50;;;23.00;99.90;;;;;;4989883;28;20298;-68
2022/07/15 06:56:01;;;;;;;8.57;4.77;;;23.10;99.90;;;;;;4991450;28;20231;-68
2022/07/15 06:58:28;;;;;;;5.13;4.43;;;23.20;99.90;;;;;;4991477;28;20631;-68
2022/07/15 07:00:56;;;;;;;7.07;4.40;;;23.30;99.90;;;;;;4990687;28;20252;-68
2022/07/15 07:03:23;;;;;;;6.17;3.93;;;23.50;99.90;;;;;;4971877;28;20306;-69
2022/07/15 07:05:50;;;;;;;4.97;3.90;;;23.60;99.90;;;;;;4989603;28;20679;-69
2022/07/15 07:08:17;;;;;;;4.87;3.93;;;23.70;99.90;;;;;;4995855;28;20207;-70
2022/07/15 07:10:44;;;;;;;5.60;4.30;;;23.80;99.90;;;;;;4991248;28;20215;-69
2022/07/15 07:13:11;;;;;;;6.60;4.78;;;23.90;99.90;;;;;;4991291;28;20236;-69
2022/07/15 07:15:38;;;;;;;6.20;4.07;;;24.00;99.90;;;;;;4991025;28;20705;-68
2022/07/15 07:18:06;;;;;;;7.73;4.47;;;24.00;99.90;;;;;;4990472;28;20261;-69
2022/07/15 07:20:33;;;;;;;8.43;4.30;;;24.10;99.90;;;;;;4990978;28;20214;-69
2022/07/15 07:23:00;;;;;;;6.53;3.83;;;24.20;99.90;;;;;;4990365;28;20723;-68
2022/07/15 07:25:26;;;;;;;7.47;3.78;;;24.30;99.90;;;;;;4991107;28;20636;-70
2022/07/15 07:27:53;;;;;;;7.50;5.73;;;24.40;99.90;;;;;;4991068;28;20709;-69
2022/07/15 07:30:20;;;;;;;6.40;4.90;;;24.60;99.90;;;;;;4990269;28;20236;-70
2022/07/15 07:32:47;;;;;;;5.17;3.77;;;24.70;99.90;;;;;;4990606;28;20303;-69
2022/07/15 07:35:15;;;;;;;3.83;3.42;;;24.80;99.90;;;;;;4991103;28;20315;-70
2022/07/15 07:37:42;;;;;;;4.35;3.38;;;24.80;99.90;;;;;;4990796;28;20305;-70
2022/07/15 07:40:10;;;;;;;6.78;3.55;;;24.90;99.90;;;;;;4990127;28;20268;-69
2022/07/15 07:42:38;;;;;;;5.28;4.25;;;25.00;99.90;;;;;;4990567;28;20257;-69
2022/07/15 07:45:06;;;;;;;9.40;4.30;;;25.10;99.90;;;;;;4990923;28;20203;-70
2022/07/15 07:47:37;;;;;;;5.55;3.83;;;25.20;99.90;;;;;;4990495;28;20271;-68
2022/07/15 07:50:04;;;;;;;4.13;3.33;;;25.40;99.90;;;;;;4990276;28;20223;-69
2022/07/15 07:52:33;;;;;;;3.88;3.03;;;25.40;99.90;;;;;;4990672;28;20309;-70
2022/07/15 07:55:00;;;;;;;5.85;3.20;;;25.50;99.90;;;;;;4989875;28;20206;-69
2022/07/15 07:57:26;;;;;;;7.80;4.30;;;25.70;99.90;;;;;;4988586;28;20203;-71
2022/07/15 07:59:53;;;;;;;6.40;3.15;;;25.80;99.90;;;;;;5026399;28;20320;-69
2022/07/15 08:02:20;;;;;;;4.50;2.65;;;26.00;99.90;;;;;;4998944;28;20659;-69
2022/07/15 08:04:48;;;;;;;4.38;2.80;;;26.10;99.90;;;;;;5028598;28;20228;-68
2022/07/15 08:07:15;;;;;;;5.93;3.38;;;26.20;99.90;;;;;;5092994;28;20202;-69
2022/07/15 08:09:43;;;;;;;7.88;4.70;;;26.20;99.90;;;;;;5092978;28;20740;-69
2022/07/15 08:12:10;;;;;;;7.63;5.00;;;26.00;99.90;;;;;;5092794;28;20257;-70
2022/07/15 08:14:36;;;;;;;6.90;5.13;;;25.60;99.90;;;;;;5092818;28;20207;-70
2022/07/15 08:17:03;;;;;;;5.85;5.05;;;25.10;99.90;;;;;;5092701;28;20243;-69
2022/07/15 08:19:30;;;;;;;7.03;4.78;;;25.00;99.90;;;;;;5092747;28;20214;-69
2022/07/15 08:21:57;;;;;;;7.40;4.95;;;24.90;99.90;;;;;;5092891;28;20252;-71
2022/07/15 08:24:24;;;;;;;5.90;4.80;;;24.80;99.90;;;;;;5092863;28;20586;-70
2022/07/15 08:26:52;;;;;;;5.63;5.03;;;24.50;99.90;;;;;;5092530;28;20206;-70
2022/07/15 08:29:19;;;;;;;5.67;5.07;;;24.20;99.90;;;;;;5092343;28;20212;-69
2022/07/15 08:31:47;;;;;;;5.90;4.87;;;24.10;99.90;;;;;;5092796;28;20297;-70
2022/07/15 08:34:13;;;;;;;5.80;4.72;;;24.10;99.90;;;;;;5092573;28;20241;-70
2022/07/15 08:36:40;;;;;;;6.40;5.07;;;23.90;99.90;;;;;;5092251;28;20236;-70
2022/07/15 08:39:07;;;;;;;5.77;4.87;;;23.80;99.90;;;;;;5092521;28;20206;-69
2022/07/15 08:41:36;;;;;;;5.20;4.70;;;23.60;99.90;;;;;;5092617;28;20700;-72
2022/07/15 08:44:06;;;;;;;6.57;5.77;;;23.60;99.90;;;;;;5089482;28;20200;-69
2022/07/15 08:46:34;;;;;;;7.00;5.17;;;23.70;99.90;;;;;;4989836;28;20628;-69
2022/07/15 08:49:06;;;;;;;5.67;4.70;;;23.80;99.90;;;;;;4989905;28;20214;-71
2022/07/15 08:51:38;;;;;;;5.87;4.43;;;23.80;99.90;;;;;;4989829;28;20203;-70
2022/07/15 08:54:06;;;;;;;5.90;4.63;;;23.80;99.90;;;;;;4989957;28;20221;-73
2022/07/15 08:56:35;;;;;;;5.57;4.63;;;23.90;99.90;;;;;;4990127;28;20264;-70
2022/07/15 08:59:04;;;;;;;9.07;4.43;;;23.90;99.90;;;;;;4989970;28;20571;-69
2022/07/15 09:01:31;;;;;;;5.03;4.30;;;24.00;99.90;;;;;;4992964;28;20211;-69
2022/07/15 09:03:59;;;;;;;6.70;5.10;;;24.00;99.90;;;;;;5025320;28;20209;-69
2022/07/15 09:06:33;;;;;;;4.87;4.17;;;24.10;99.90;;;;;;5078416;28;20281;-72
2022/07/15 09:09:28;;;;;;;6.23;4.47;;;24.10;99.90;;;;;;4986820;28;20319;-70
2022/07/15 09:12:06;;;;;;;6.10;4.53;;;24.10;99.90;;;;;;4970520;28;20621;-68
2022/07/15 09:14:36;;;;;;;5.20;4.27;;;24.20;99.90;;;;;;5020218;28;20205;-70
2022/07/15 09:17:07;;;;;;;6.47;4.97;;;24.30;99.90;;;;;;5059607;28;20333;-69
2022/07/15 09:20:04;;;;;;;8.63;4.60;;;24.30;99.90;;;;;;4987027;28;20222;-70
2022/07/15 09:22:33;;;;;;;6.37;4.70;;;24.30;99.90;;;;;;4969930;28;20235;-73
2022/07/15 09:25:06;;;;;;;4.43;4.00;;;24.30;99.90;;;;;;5002260;28;20749;-69
2022/07/15 09:27:36;;;;;;;6.70;4.53;;;24.30;99.90;;;;;;5033841;28;20671;-72
2022/07/15 09:36:03;;;;;;;5.70;4.60;;;24.20;99.90;;;;;;5018680;28;20241;-70
2022/07/15 09:38:43;;;;;;;5.20;4.70;;;24.10;99.90;;;;;;4989004;28;20208;-71
2022/07/15 09:41:13;;;;;;;5.73;4.90;;;24.00;99.90;;;;;;4989078;28;20559;-70
2022/07/15 09:43:50;;;;;;;5.90;4.83;;;23.90;99.90;;;;;;4989907;28;20210;-69
2022/07/15 09:46:20;;;;;;;5.73;4.83;;;23.80;99.90;;;;;;4982966;28;20717;-70
2022/07/15 09:48:49;;;;;;;10.30;5.57;;;23.70;99.90;;;;;;4986384;28;20308;-70
2022/07/15 09:51:16;;;;;;;10.40;6.60;;;23.60;99.90;;;;;;4989395;28;20301;-71
2022/07/15 09:53:44;;;;;;;7.27;5.33;;;23.60;99.90;;;;;;4989328;28;20211;-70
2022/07/15 09:56:14;;;;;;;6.10;5.23;;;23.60;99.90;;;;;;4969578;28;20259;-70
2022/07/15 09:58:42;;;;;;;6.27;5.23;;;23.60;99.90;;;;;;4970066;28;20303;-68
2022/07/15 10:01:10;;;;;;;8.07;5.70;;;23.60;99.90;;;;;;4970189;28;20684;-70
2022/07/15 10:03:39;;;;;;;6.30;5.50;;;23.50;99.90;;;;;;5050986;28;20288;-71
2022/07/15 10:06:07;;;;;;;7.33;6.47;;;23.40;99.90;;;;;;5006729;28;20322;-70
2022/07/15 10:08:35;;;;;;;6.37;5.73;;;23.30;99.90;;;;;;5042202;28;20223;-71
2022/07/15 10:11:11;;;;;;;7.17;5.07;;;23.20;99.90;;;;;;5091765;28;20738;-70
2022/07/15 10:13:57;;;;;;;7.50;5.97;;;23.20;99.90;;;;;;5091749;28;20205;-69
2022/07/15 10:16:52;;;;;;;6.10;5.43;;;23.20;99.90;;;;;;5091181;28;20212;-69
2022/07/15 10:19:31;;;;;;;6.07;5.00;;;23.20;99.90;;;;;;4969489;28;20680;-70
2022/07/15 10:22:07;;;;;;;13.90;6.23;;;23.10;99.90;;;;;;5035672;28;20292;-69
2022/07/15 10:24:50;;;;;;;6.13;5.53;;;23.00;99.90;;;;;;4992048;28;20203;-69
2022/07/15 10:27:42;;;;;;;6.83;6.13;;;22.90;99.90;;;;;;4992247;28;20293;-68
2022/07/15 10:30:09;;;;;;;6.63;5.83;;;22.80;99.90;;;;;;5045352;28;20250;-69
2022/07/15 10:33:10;;;;;;;8.80;6.37;;;22.70;99.90;;;;;;4991766;28;20260;-70
2022/07/15 10:35:42;;;;;;;7.73;6.93;;;22.60;99.90;;;;;;5053441;28;20203;-71
2022/07/15 10:38:30;;;;;;;7.17;6.43;;;22.40;99.90;;;;;;4993713;28;20680;-70
2022/07/15 10:41:09;;;;;;;8.27;7.40;;;22.30;99.90;;;;;;5011539;28;20188;-69
2022/07/15 10:43:47;;;;;;;8.67;7.20;;;22.30;99.90;;;;;;5011478;28;20501;-70
2022/07/15 10:46:26;;;;;;;10.60;7.17;;;22.20;99.90;;;;;;5011228;28;20275;-71
2022/07/15 10:49:09;;;;;;;10.07;7.30;;;22.20;99.90;;;;;;5012805;28;20200;-68
2022/07/15 10:51:46;;;;;;;9.43;7.47;;;22.20;99.90;;;;;;5094081;28;20687;-69
2022/07/15 10:54:43;;;;;;;8.20;7.13;;;22.10;99.90;;;;;;5094602;28;20279;-70
2022/07/15 10:57:13;;;;;;;8.67;7.40;;;21.90;99.90;;;;;;4994244;28;20252;-69
2022/07/15 10:59:48;;;;;;;7.73;6.90;;;21.80;99.90;;;;;;4991781;28;20679;-70
2022/07/15 11:02:18;;;;;;;8.17;6.80;;;21.70;99.90;;;;;;4991402;28;20701;-69
2022/07/15 11:04:45;;;;;;;7.77;7.00;;;21.60;99.90;;;;;;4991643;28;20234;-72
2022/07/15 11:07:28;;;;;;;7.43;6.67;;;21.50;99.90;;;;;;4991677;28;20629;-72
2022/07/15 11:09:57;;;;;;;7.70;6.90;;;21.30;99.90;;;;;;5072613;28;20195;-70
2022/07/15 11:12:25;;;;;;;8.27;6.60;;;21.20;99.90;;;;;;5070167;28;20243;-72
2022/07/15 11:14:54;;;;;;;8.80;7.00;;;21.20;99.90;;;;;;4990730;28;20211;-71
2022/07/15 11:17:26;;;;;;;7.63;6.80;;;21.20;99.90;;;;;;4988792;28;20268;-70
2022/07/15 11:19:55;;;;;;;9.63;7.53;;;21.10;99.90;;;;;;4991605;28;20199;-72
2022/07/15 11:22:24;;;;;;;10.30;7.60;;;21.00;99.90;;;;;;4991252;28;20320;-69
2022/07/15 11:24:53;;;;;;;9.33;8.30;;;21.00;99.90;;;;;;4990189;28;20212;-71
2022/07/15 11:27:21;;;;;;;13.10;7.70;;;21.00;99.90;;;;;;4989718;28;20211;-70
2022/07/15 11:29:50;;;;;;;9.67;7.70;;;21.00;99.90;;;;;;4990596;28;20208;-72
2022/07/15 11:32:20;;;;;;;9.63;8.07;;;20.80;99.90;;;;;;4990736;28;20207;-70
2022/07/15 11:34:50;;;;;;;10.00;8.67;;;20.70;99.90;;;;;;4991311;28;20211;-70
2022/07/15 11:37:19;;;;;;;11.37;9.17;;;20.70;99.90;;;;;;4991059;28;20227;-71
2022/07/15 11:39:48;;;;;;;11.07;8.53;;;20.60;99.90;;;;;;4990594;28;20673;-71
2022/07/15 11:45:11;;;;;;;10.60;8.60;;;20.50;99.90;;;;;;4971581;28;20183;-71
2022/07/15 11:47:51;;;;;;;10.57;8.60;;;20.50;99.90;;;;;;4976952;28;20235;-70
2022/07/15 11:50:19;;;;;;;10.60;9.23;;;20.50;99.90;;;;;;4988627;28;20223;-70
2022/07/15 11:52:46;;;;;;;10.50;8.40;;;20.50;99.90;;;;;;5014434;28;20279;-67
2022/07/15 11:55:13;;;;;;;12.23;8.33;;;20.50;99.90;;;;;;4989863;28;20213;-69
2022/07/15 11:57:46;;;;;;;10.67;7.60;;;20.40;99.90;;;;;;4990467;28;20227;-70
2022/07/15 12:00:14;;;;;;;8.83;7.87;;;20.40;99.90;;;;;;4989551;28;20208;-70
2022/07/15 12:02:41;;;;;;;10.13;8.10;;;20.40;99.90;;;;;;4990168;28;20219;-69
2022/07/15 12:05:09;;;;;;;8.70;7.80;;;20.40;99.90;;;;;;4990182;28;20202;-69
2022/07/15 12:07:41;;;;;;;12.50;7.77;;;20.30;99.90;;;;;;4990864;28;20205;-68
2022/07/15 12:10:09;;;;;;;10.37;8.43;;;20.40;99.90;;;;;;4990509;28;20199;-70
2022/07/15 12:12:43;;;;;;;10.47;8.43;;;20.40;99.90;;;;;;5092402;28;20204;-70
2022/07/15 12:15:11;;;;;;;10.67;7.80;;;20.50;99.90;;;;;;5092772;28;20252;-69
2022/07/15 12:17:38;;;;;;;10.43;8.57;;;20.70;99.90;;;;;;5016919;28;20313;-69
2022/07/15 12:20:06;;;;;;;11.83;9.60;;;20.90;99.90;;;;;;4989787;28;20657;-69
2022/07/15 12:22:34;;;;;;;11.00;9.03;;;20.80;99.90;;;;;;4990095;28;20747;-69
2022/07/15 12:25:01;;;;;;;11.13;8.83;;;20.80;99.90;;;;;;4990487;28;20203;-68
2022/07/15 12:27:35;;;;;;;9.27;8.27;;;20.80;99.90;;;;;;4988635;28;20294;-67
2022/07/15 12:30:04;;;;;;;9.63;7.93;;;20.90;99.90;;;;;;4979831;28;20559;-73
2022/07/15 12:32:32;;;;;;;9.40;7.60;;;21.00;99.90;;;;;;5035326;28;20196;-71
2022/07/15 12:35:00;;;;;;;9.60;6.90;;;21.00;99.90;;;;;;5092433;28;20544;-68
2022/07/15 12:37:29;;;;;;;7.77;6.50;;;21.20;99.90;;;;;;5023204;28;20224;-68
2022/07/15 12:40:01;;;;;;;7.53;6.50;;;21.40;99.90;;;;;;4990206;28;20208;-70
2022/07/15 12:42:31;;;;;;;7.40;6.13;;;21.50;99.90;;;;;;4983013;28;20206;-70
2022/07/15 12:45:12;;;;;;;6.73;6.00;;;21.60;99.90;;;;;;4989343;28;20359;-70
2022/07/15 12:47:57;;;;;;;7.00;5.67;;;21.70;99.90;;;;;;4989914;28;20274;-69
2022/07/15 12:50:24;;;;;;;7.57;5.40;;;21.80;99.90;;;;;;4988530;28;20231;-70
2022/07/15 12:52:53;;;;;;;7.73;5.63;;;21.90;99.90;;;;;;4996570;28;20206;-68
2022/07/15 12:55:23;;;;;;;6.37;5.37;;;22.00;99.90;;;;;;4983129;28;20261;-69
2022/07/15 12:57:50;;;;;;;5.63;5.03;;;22.10;99.90;;;;;;4990072;28;20583;-69
2022/07/15 13:00:21;;;;;;;6.43;5.13;;;22.20;99.90;;;;;;4989894;28;20705;-71
2022/07/15 13:03:00;;;;;;;11.47;7.30;;;22.20;99.90;;;;;;4990271;28;20206;-69
2022/07/15 13:05:29;;;;;;;6.47;5.50;;;22.30;99.90;;;;;;4986841;28;20637;-69
2022/07/15 13:07:55;;;;;;;5.93;5.00;;;22.40;99.90;;;;;;4989410;28;20208;-68
2022/07/15 13:10:22;;;;;;;6.60;4.80;;;22.30;99.90;;;;;;5031273;28;20289;-69
2022/07/15 13:12:49;;;;;;;6.27;5.20;;;22.20;99.90;;;;;;5005003;28;20214;-69